Terminal Aerodrome Forecast
Issued by NWS

Home | Current Version | Previous Version | Text Only | Print | Product List | Glossary On
Versions: 1 2 3 4 5 6 7 8 9 10 11 12 13
145
FTAK31 PAJN 210520
TAFAWG
TAF
PAWG 210520Z 2106/2206 VRB05KT P6SM SCT050 BKN070
     FM211500 13005KT P6SM SCT070
     FM212100 28006KT P6SM SCT050 BKN100
     FM220300 14004KT P6SM FEW050 SCT100
      AMD LTD TO CLD VIS AND WIND 2106/2115=

USA.gov is the U.S. government's official web portal to all federal, state and local government web resources and services.